createdAt,value
2022-09-27T00:01:12.140Z,99009.76
2022-09-27T00:03:42.992Z,99008.98
2022-09-27T00:06:22.671Z,99005.27
2022-09-27T00:08:50.431Z,98999.52
2022-09-27T00:11:26.083Z,98999.06
2022-09-27T00:13:55.698Z,98993.58
2022-09-27T00:16:25.838Z,98987.36
2022-09-27T00:19:00.003Z,98985.88
2022-09-27T00:21:30.036Z,98983.53
2022-09-27T00:23:59.099Z,98982.69
2022-09-27T00:26:27.934Z,98979.70
2022-09-27T00:28:56.227Z,98976.42
2022-09-27T00:31:32.228Z,98976.32
2022-09-27T00:34:02.247Z,98972.39
2022-09-27T00:36:31.870Z,98969.72
2022-09-27T00:39:00.595Z,98964.11
2022-09-27T00:41:36.225Z,98967.52
2022-09-27T00:44:26.267Z,98968.21
2022-09-27T00:47:18.700Z,98964.01
2022-09-27T00:49:50.780Z,98961.20
2022-09-27T00:52:23.185Z,98955.72
2022-09-27T00:54:56.548Z,98961.60
2022-09-27T00:57:24.900Z,98963.61
2022-09-27T01:00:05.379Z,98963.74
2022-09-27T01:02:35.327Z,98959.64
2022-09-27T01:05:06.013Z,98962.05
2022-09-27T01:07:34.970Z,98964.73
2022-09-27T01:10:03.897Z,98967.51
2022-09-27T01:12:34.858Z,98966.45
2022-09-27T01:15:05.697Z,98963.73
2022-09-27T01:17:56.766Z,98961.58
2022-09-27T01:20:52.861Z,98964.11
2022-09-27T01:23:20.637Z,98960.52
2022-09-27T01:26:16.971Z,98959.81
2022-09-27T01:29:00.262Z,98962.95
2022-09-27T01:31:35.834Z,98958.98
2022-09-27T01:34:08.561Z,98959.36
2022-09-27T01:37:07.259Z,98956.77
2022-09-27T01:39:45.131Z,98949.77
2022-09-27T01:43:04.793Z,98950.17
2022-09-27T01:45:41.873Z,98947.33
2022-09-27T01:48:24.062Z,98945.63
2022-09-27T01:51:08.304Z,98949.07
2022-09-27T01:53:52.160Z,98943.89
2022-09-27T01:56:39.572Z,98944.87
2022-09-27T01:59:25.654Z,98942.39
2022-09-27T02:02:13.736Z,98939.09
2022-09-27T02:05:18.056Z,98935.33
2022-09-27T02:07:56.731Z,98929.17
2022-09-27T02:10:38.064Z,98921.88
2022-09-27T02:13:26.179Z,98919.23
2022-09-27T02:16:12.137Z,98921.02
2022-09-27T02:18:54.172Z,98915.99
2022-09-27T02:21:26.217Z,98910.44
2022-09-27T02:23:58.191Z,98907.75
2022-09-27T02:26:47.632Z,98907.45
2022-09-27T02:29:24.822Z,98910.66
2022-09-27T02:31:54.187Z,98914.18
2022-09-27T02:34:27.859Z,98916.19
2022-09-27T02:36:56.762Z,98920.20
2022-09-27T02:39:25.237Z,98921.43
2022-09-27T02:42:03.620Z,98921.95
2022-09-27T02:44:31.995Z,98919.91
2022-09-27T02:47:22.358Z,98917.30
2022-09-27T02:50:14.594Z,98918.30
2022-09-27T02:53:08.095Z,98912.95
2022-09-27T02:56:06.834Z,98909.46
2022-09-27T02:59:09.753Z,98908.44
2022-09-27T03:02:14.488Z,98899.68
2022-09-27T03:05:05.022Z,98894.50
2022-09-27T03:07:32.944Z,98895.66
2022-09-27T03:10:00.767Z,98895.36
2022-09-27T03:12:28.859Z,98893.48
2022-09-27T03:14:58.900Z,98894.52
2022-09-27T03:17:56.214Z,98888.42
2022-09-27T03:20:42.787Z,98891.98
2022-09-27T03:23:17.045Z,98892.55
2022-09-27T03:25:46.376Z,98898.94
2022-09-27T03:28:14.829Z,98895.69
2022-09-27T03:30:45.487Z,98895.09
2022-09-27T03:33:15.310Z,98890.50
2022-09-27T03:35:48.019Z,98883.57
2022-09-27T03:38:16.706Z,98878.15
2022-09-27T03:40:44.835Z,98870.23
2022-09-27T03:43:14.642Z,98871.79
2022-09-27T03:45:45.311Z,98870.11
2022-09-27T03:48:13.432Z,98875.63
2022-09-27T03:50:41.635Z,98872.69
2022-09-27T03:53:09.928Z,98867.67
2022-09-27T03:55:37.777Z,98866.26
2022-09-27T03:58:05.833Z,98861.90
2022-09-27T04:00:41.190Z,98862.91
2022-09-27T04:03:09.184Z,98862.89
2022-09-27T04:05:40.198Z,98860.77
2022-09-27T04:08:11.960Z,98861.77
2022-09-27T04:10:39.860Z,98858.92
2022-09-27T04:13:07.754Z,98850.98
2022-09-27T04:15:43.223Z,98845.16
2022-09-27T04:18:30.104Z,98845.23
2022-09-27T04:21:27.810Z,98847.07
2022-09-27T04:23:56.402Z,98849.55
2022-09-27T04:26:25.938Z,98851.92
2022-09-27T04:29:04.408Z,98855.48
2022-09-27T04:31:33.708Z,98857.05
2022-09-27T04:34:44.733Z,98857.09
2022-09-27T04:37:14.109Z,98858.46
2022-09-27T04:39:46.648Z,98855.55
2022-09-27T04:42:14.536Z,98861.27
2022-09-27T04:44:42.697Z,98859.03
2022-09-27T04:47:10.627Z,98854.24
2022-09-27T04:49:38.918Z,98852.86
2022-09-27T04:52:06.740Z,98851.42
2022-09-27T04:54:35.121Z,98851.73
2022-09-27T04:57:12.816Z,98853.17
2022-09-27T04:59:42.708Z,98851.15
2022-09-27T05:02:13.372Z,98846.38
2022-09-27T05:05:11.169Z,98845.80
2022-09-27T05:07:41.937Z,98849.38
2022-09-27T05:10:13.943Z,98851.65
2022-09-27T05:12:41.825Z,98850.11
2022-09-27T05:15:10.435Z,98850.11
2022-09-27T05:17:58.791Z,98845.49
2022-09-27T05:20:53.422Z,98839.60
2022-09-27T05:23:30.118Z,98838.12
2022-09-27T05:25:58.058Z,98838.25
2022-09-27T05:28:25.984Z,98841.46
2022-09-27T05:30:53.988Z,98841.42
2022-09-27T05:33:22.734Z,98847.75
2022-09-27T05:35:57.512Z,98849.30
2022-09-27T05:38:30.188Z,98853.48
2022-09-27T05:40:59.996Z,98850.98
2022-09-27T05:43:29.007Z,98849.75
2022-09-27T05:46:00.848Z,98848.55
2022-09-27T05:48:30.385Z,98846.73
2022-09-27T05:51:07.710Z,98848.17
2022-09-27T05:53:38.105Z,98848.51
2022-09-27T05:56:08.760Z,98839.50
2022-09-27T05:59:02.189Z,98842.71
2022-09-27T06:01:37.388Z,98832.54
2022-09-27T06:04:23.847Z,98839.75
2022-09-27T06:07:06.381Z,98839.77
2022-09-27T06:09:34.214Z,98842.73
2022-09-27T06:12:02.362Z,98841.91
2022-09-27T06:14:30.423Z,98835.94
2022-09-27T06:17:02.206Z,98831.56
2022-09-27T06:19:33.840Z,98830.20
2022-09-27T06:22:01.786Z,98824.42
2022-09-27T06:24:38.521Z,98822.11
2022-09-27T06:27:14.244Z,98820.48
2022-09-27T06:29:56.490Z,98819.25
2022-09-27T06:32:40.934Z,98815.29
2022-09-27T06:35:32.131Z,98812.04
2022-09-27T06:38:04.750Z,98809.77
2022-09-27T06:40:33.205Z,98809.04
2022-09-27T06:43:20.571Z,98811.83
2022-09-27T06:46:07.366Z,98822.23
2022-09-27T06:48:53.935Z,98838.29
2022-09-27T06:51:23.027Z,98849.16
2022-09-27T06:53:50.935Z,98850.96
2022-09-27T06:56:19.628Z,98850.85
2022-09-27T06:59:12.498Z,98855.77
2022-09-27T07:01:44.230Z,98853.95
2022-09-27T07:04:31.929Z,98848.13
2022-09-27T07:07:23.001Z,98854.67
2022-09-27T07:09:50.934Z,98849.94
2022-09-27T07:12:21.244Z,98858.33
2022-09-27T07:14:49.753Z,98860.33
2022-09-27T07:17:19.275Z,98860.52
2022-09-27T07:19:49.276Z,98859.21
2022-09-27T07:22:17.059Z,98860.45
2022-09-27T07:24:47.554Z,98850.27
2022-09-27T07:27:16.333Z,98854.00
2022-09-27T07:29:45.040Z,98857.83
2022-09-27T07:32:13.393Z,98848.19
2022-09-27T07:34:41.747Z,98841.95
2022-09-27T07:37:09.643Z,98833.26
2022-09-27T07:39:40.297Z,98835.04
2022-09-27T07:42:08.249Z,98833.85
2022-09-27T07:44:39.882Z,98834.67
2022-09-27T07:47:28.788Z,98833.81
2022-09-27T07:50:07.113Z,98834.85
2022-09-27T07:53:05.479Z,98840.98
2022-09-27T07:55:58.396Z,98842.06
2022-09-27T07:58:30.691Z,98846.36
2022-09-27T08:01:02.715Z,98846.26
2022-09-27T08:03:31.735Z,98855.86
2022-09-27T08:06:03.215Z,98858.20
2022-09-27T08:08:31.705Z,98862.85
2022-09-27T08:11:01.256Z,98867.55
2022-09-27T08:13:29.636Z,98865.74
2022-09-27T08:16:02.037Z,98867.46
2022-09-27T08:18:37.998Z,98865.32
2022-09-27T08:21:24.665Z,98864.82
2022-09-27T08:24:11.837Z,98865.34
2022-09-27T08:27:11.802Z,98863.64
2022-09-27T08:29:59.089Z,98863.46
2022-09-27T08:32:28.826Z,98866.39
2022-09-27T08:34:57.237Z,98871.59
2022-09-27T08:37:26.569Z,98869.49
2022-09-27T08:39:54.840Z,98866.67
2022-09-27T08:42:35.527Z,98865.98
2022-09-27T08:45:12.671Z,98866.05
2022-09-27T08:47:55.181Z,98868.96
2022-09-27T08:50:28.669Z,98864.66
2022-09-27T08:53:04.737Z,98860.41
2022-09-27T08:55:39.834Z,98859.10
2022-09-27T08:58:36.253Z,98853.51
2022-09-27T09:01:16.176Z,98849.20
2022-09-27T09:04:09.014Z,98847.75
2022-09-27T09:06:44.185Z,98841.89
2022-09-27T09:09:37.873Z,98842.79
2022-09-27T09:12:46.593Z,98834.98
2022-09-27T09:15:26.627Z,98836.52
2022-09-27T09:18:09.349Z,98835.92
2022-09-27T09:21:21.792Z,98838.65
2022-09-27T09:24:03.033Z,98843.63
2022-09-27T09:26:40.833Z,98848.52
2022-09-27T09:29:39.383Z,98846.70
2022-09-27T09:32:33.473Z,98841.88
2022-09-27T09:35:06.541Z,98837.49
2022-09-27T09:37:38.005Z,98838.37
2022-09-27T09:40:27.352Z,98839.66
2022-09-27T09:43:10.592Z,98832.23
2022-09-27T09:45:45.996Z,98826.66
2022-09-27T09:48:23.879Z,98827.45
2022-09-27T09:50:54.231Z,98824.33
2022-09-27T09:53:31.654Z,98820.77
2022-09-27T09:56:05.883Z,98810.50
2022-09-27T09:58:44.800Z,98814.42
2022-09-27T10:01:40.582Z,98813.97
2022-09-27T10:04:18.752Z,98812.51
2022-09-27T10:06:49.703Z,98812.35
2022-09-27T10:09:24.361Z,98815.37
2022-09-27T10:12:10.987Z,98813.55
2022-09-27T10:14:39.935Z,98814.14
2022-09-27T10:17:11.234Z,98814.33
2022-09-27T10:19:39.799Z,98815.77
2022-09-27T10:22:19.401Z,98814.16
2022-09-27T10:24:57.389Z,98812.31
2022-09-27T10:27:55.649Z,98810.15
2022-09-27T10:30:35.015Z,98810.83
2022-09-27T10:33:19.141Z,98809.54
2022-09-27T10:36:02.434Z,98805.79
2022-09-27T10:38:32.715Z,98800.67
2022-09-27T10:41:42.512Z,98792.21
2022-09-27T10:44:26.190Z,98788.72
2022-09-27T10:47:08.223Z,98787.09
2022-09-27T10:50:08.075Z,98787.46
2022-09-27T10:53:20.849Z,98782.04
2022-09-27T10:55:57.103Z,98781.45
2022-09-27T10:58:29.703Z,98778.06
2022-09-27T11:01:06.161Z,98779.11
2022-09-27T11:03:52.496Z,98777.95
2022-09-27T11:06:24.136Z,98773.02
2022-09-27T11:08:55.493Z,98770.48
2022-09-27T11:11:28.458Z,98766.02
2022-09-27T11:14:05.115Z,98766.66
2022-09-27T11:16:41.888Z,98756.64
2022-09-27T11:19:34.864Z,98751.34
2022-09-27T11:22:29.792Z,98741.52
2022-09-27T11:25:44.046Z,98742.30
2022-09-27T11:28:42.713Z,98739.70
2022-09-27T11:31:25.090Z,98734.32
2022-09-27T11:34:15.732Z,98738.62
2022-09-27T11:36:44.455Z,98734.81
2022-09-27T11:39:24.193Z,98733.48
2022-09-27T11:42:13.161Z,98724.98
2022-09-27T11:45:34.108Z,98723.28
2022-09-27T11:48:26.325Z,98723.02
2022-09-27T11:51:03.742Z,98722.75
2022-09-27T11:53:51.323Z,98722.15
2022-09-27T11:56:39.899Z,98723.69
2022-09-27T11:59:26.154Z,98719.53
2022-09-27T12:02:19.363Z,98721.30
2022-09-27T12:04:49.984Z,98721.71
2022-09-27T12:07:45.140Z,98713.33
2022-09-27T12:10:17.054Z,98717.95
2022-09-27T12:12:51.686Z,98717.00
2022-09-27T12:15:30.212Z,98711.29
2022-09-27T12:18:28.120Z,98711.92
2022-09-27T12:20:56.490Z,98704.29
2022-09-27T12:23:44.592Z,98702.08
2022-09-27T12:26:30.093Z,98702.29
2022-09-27T12:29:21.635Z,98702.85
2022-09-27T12:31:57.351Z,98706.33
2022-09-27T12:34:48.275Z,98706.29
2022-09-27T12:37:29.299Z,98703.93
2022-09-27T12:40:07.605Z,98694.26
2022-09-27T12:45:43.440Z,98688.27
2022-09-27T12:48:23.058Z,98686.23
2022-09-27T12:50:55.829Z,98685.20
2022-09-27T12:53:30.614Z,98688.90
2022-09-27T12:56:10.627Z,98682.88
2022-09-27T12:59:00.355Z,98682.95
2022-09-27T13:01:56.121Z,98676.91
2022-09-27T13:04:34.066Z,98673.02
2022-09-27T13:07:35.519Z,98670.85
2022-09-27T13:10:15.266Z,98667.38
2022-09-27T13:12:49.320Z,98663.63
2022-09-27T13:15:21.844Z,98659.14
2022-09-27T13:17:50.786Z,98657.11
2022-09-27T13:20:31.415Z,98651.54
2022-09-27T13:23:01.268Z,98648.20
2022-09-27T13:25:50.613Z,98642.02
2022-09-27T13:28:32.835Z,98641.64
2022-09-27T13:31:04.149Z,98635.16
2022-09-27T13:33:46.209Z,98630.38
2022-09-27T13:36:24.553Z,98629.46
2022-09-27T13:39:11.323Z,98629.03
2022-09-27T13:42:07.231Z,98626.34
2022-09-27T13:44:41.495Z,98623.41
2022-09-27T13:47:37.673Z,98626.97
2022-09-27T13:50:32.259Z,98624.98
2022-09-27T13:53:19.368Z,98623.27
2022-09-27T13:55:51.918Z,98619.39
2022-09-27T13:58:39.541Z,98620.85
2022-09-27T14:01:19.014Z,98626.05
2022-09-27T14:03:56.013Z,98621.24
2022-09-27T14:06:32.838Z,98621.05
2022-09-27T14:09:18.005Z,98616.03
2022-09-27T14:11:52.626Z,98614.55
2022-09-27T14:14:27.417Z,98612.58
2022-09-27T14:17:00.117Z,98617.88
2022-09-27T14:19:29.167Z,98615.52
2022-09-27T14:22:12.187Z,98614.16
2022-09-27T14:24:53.105Z,98615.59
2022-09-27T14:27:29.571Z,98613.48
2022-09-27T14:30:17.088Z,98610.16
2022-09-27T14:32:50.255Z,98607.00
2022-09-27T14:35:44.013Z,98609.20
2022-09-27T14:38:36.672Z,98610.04
2022-09-27T14:41:07.601Z,98613.99
2022-09-27T14:43:37.421Z,98607.63
2022-09-27T14:46:07.714Z,98609.13
2022-09-27T14:48:38.897Z,98609.79
2022-09-27T14:51:15.037Z,98607.75
2022-09-27T14:53:57.102Z,98608.77
2022-09-27T14:56:28.112Z,98608.52
2022-09-27T14:59:03.688Z,98611.89
2022-09-27T15:01:33.251Z,98608.02
2022-09-27T15:04:06.791Z,98607.50
2022-09-27T15:06:38.811Z,98607.55
2022-09-27T15:09:07.265Z,98609.43
2022-09-27T15:11:35.301Z,98607.63
2022-09-27T15:14:05.130Z,98608.27
2022-09-27T15:16:33.897Z,98603.50
2022-09-27T15:19:27.129Z,98605.16
2022-09-27T15:21:57.369Z,98599.41
2022-09-27T15:24:45.409Z,98598.45
2022-09-27T15:27:22.070Z,98597.52
2022-09-27T15:29:57.562Z,98595.14
2022-09-27T15:32:27.991Z,98590.52
2022-09-27T15:34:57.125Z,98591.66
2022-09-27T15:37:34.218Z,98586.84
2022-09-27T15:40:52.241Z,98583.52
2022-09-27T15:43:35.127Z,98583.70
2022-09-27T15:46:05.555Z,98580.98
2022-09-27T15:48:35.601Z,98579.99
2022-09-27T15:51:03.777Z,98585.66
2022-09-27T15:53:34.659Z,98583.77
2022-09-27T15:56:09.151Z,98587.13
2022-09-27T15:58:37.481Z,98586.10
2022-09-27T16:01:05.785Z,98588.38
2022-09-27T16:03:34.409Z,98590.84
2022-09-27T16:06:05.329Z,98596.15
2022-09-27T16:08:33.218Z,98596.57
2022-09-27T16:11:03.391Z,98595.73
2022-09-27T16:13:33.202Z,98595.54
2022-09-27T16:16:02.406Z,98596.55
2022-09-27T16:18:31.045Z,98593.45
2022-09-27T16:20:59.678Z,98592.86
2022-09-27T16:23:27.704Z,98593.58
2022-09-27T16:25:56.454Z,98599.02
2022-09-27T16:28:24.245Z,98601.01
2022-09-27T16:30:52.246Z,98604.27
2022-09-27T16:33:20.170Z,98599.39
2022-09-27T16:35:48.961Z,98602.67
2022-09-27T16:38:17.815Z,98604.70
2022-09-27T16:40:45.678Z,98606.24
2022-09-27T16:43:13.475Z,98604.87
2022-09-27T16:45:41.428Z,98608.48
2022-09-27T16:48:09.188Z,98602.89
2022-09-27T16:50:55.538Z,98599.37
2022-09-27T16:53:23.681Z,98596.23
2022-09-27T16:55:52.740Z,98600.23
2022-09-27T16:58:20.650Z,98596.77
2022-09-27T17:00:48.498Z,98601.80
2022-09-27T17:03:16.626Z,98593.94
2022-09-27T17:05:44.938Z,98597.02
2022-09-27T17:08:12.688Z,98594.34
2022-09-27T17:10:45.046Z,98596.68
2022-09-27T17:13:13.491Z,98598.49
2022-09-27T17:15:42.255Z,98597.30
2022-09-27T17:18:13.046Z,98596.55
2022-09-27T17:20:40.884Z,98596.55
2022-09-27T17:23:08.678Z,98594.50
2022-09-27T17:25:36.378Z,98591.80
2022-09-27T17:28:04.472Z,98595.70
2022-09-27T17:30:35.140Z,98598.43
2022-09-27T17:33:04.566Z,98598.17
2022-09-27T17:35:32.543Z,98597.10
2022-09-27T17:38:01.013Z,98592.31
2022-09-27T17:40:28.881Z,98591.55
2022-09-27T17:42:56.920Z,98593.50
2022-09-27T17:45:25.068Z,98590.93
2022-09-27T17:48:13.556Z,98593.41
2022-09-27T17:50:46.168Z,98590.77
2022-09-27T17:53:13.966Z,98589.09
2022-09-27T17:55:41.755Z,98592.96
2022-09-27T17:58:09.625Z,98590.66
2022-09-27T18:00:37.559Z,98584.02
2022-09-27T18:03:05.454Z,98584.78
2022-09-27T18:05:33.524Z,98589.64
2022-09-27T18:08:01.764Z,98586.08
2022-09-27T18:10:29.517Z,98588.48
2022-09-27T18:12:57.358Z,98587.69
2022-09-27T18:15:26.681Z,98586.80
2022-09-27T18:17:58.346Z,98584.52
2022-09-27T18:20:26.301Z,98583.74
2022-09-27T18:22:54.753Z,98595.58
2022-09-27T18:25:25.128Z,98594.28
2022-09-27T18:27:55.684Z,98590.67
2022-09-27T18:30:23.691Z,98592.71
2022-09-27T18:32:52.858Z,98591.27
2022-09-27T18:35:21.372Z,98588.47
2022-09-27T18:37:49.317Z,98587.38
2022-09-27T18:40:28.075Z,98592.92
2022-09-27T18:43:06.665Z,98595.86
2022-09-27T18:45:38.630Z,98601.74
2022-09-27T18:48:06.652Z,98603.17
2022-09-27T18:50:37.710Z,98603.21
2022-09-27T18:53:05.590Z,98604.55
2022-09-27T18:55:36.760Z,98605.41
2022-09-27T18:58:05.002Z,98606.30
2022-09-27T19:00:32.927Z,98602.13
2022-09-27T19:03:01.359Z,98601.73
2022-09-27T19:05:29.350Z,98598.55
2022-09-27T19:07:57.050Z,98598.12
2022-09-27T19:10:24.891Z,98595.55
2022-09-27T19:12:56.715Z,98595.27
2022-09-27T19:15:25.167Z,98593.45
2022-09-27T19:17:53.261Z,98591.15
2022-09-27T19:20:21.100Z,98589.52
2022-09-27T19:22:49.039Z,98587.60
2022-09-27T19:25:17.357Z,98581.55
2022-09-27T19:27:45.543Z,98577.86
2022-09-27T19:30:13.686Z,98576.36
2022-09-27T19:32:41.555Z,98574.38
2022-09-27T19:35:11.551Z,98568.79
2022-09-27T19:37:40.221Z,98567.02
2022-09-27T19:40:08.425Z,98568.58
2022-09-27T19:42:36.229Z,98566.42
2022-09-27T19:45:09.269Z,98564.19
2022-09-27T19:47:39.340Z,98561.84
2022-09-27T19:50:07.712Z,98562.19
2022-09-27T19:52:36.229Z,98554.20
2022-09-27T19:55:05.068Z,98551.75
2022-09-27T19:57:33.084Z,98553.95
2022-09-27T20:00:01.117Z,98550.94
2022-09-27T20:02:29.223Z,98547.76
2022-09-27T20:04:57.329Z,98549.58
2022-09-27T20:07:25.430Z,98547.45
2022-09-27T20:09:53.283Z,98549.91
2022-09-27T20:12:23.678Z,98554.29
2022-09-27T20:14:51.420Z,98555.58
2022-09-27T20:17:19.344Z,98568.06
2022-09-27T20:19:47.153Z,98576.21
2022-09-27T20:22:14.858Z,98573.15
2022-09-27T20:24:42.638Z,98572.63
2022-09-27T20:27:10.493Z,98571.69
2022-09-27T20:29:38.451Z,98563.25
2022-09-27T20:34:54.641Z,98566.81
2022-09-27T20:37:23.345Z,98555.65
2022-09-27T20:39:52.620Z,98553.30
2022-09-27T20:42:20.595Z,98560.59
2022-09-27T20:44:51.944Z,98566.66
2022-09-27T20:47:22.431Z,98567.69
2022-09-27T20:49:51.011Z,98574.45
2022-09-27T20:52:19.741Z,98573.23
2022-09-27T20:54:47.677Z,98569.60
2022-09-27T20:57:15.976Z,98573.20
2022-09-27T20:59:43.913Z,98566.50
2022-09-27T21:02:11.901Z,98564.71
2022-09-27T21:04:39.799Z,98564.36
2022-09-27T21:07:07.551Z,98555.19
2022-09-27T21:09:38.195Z,98547.61
2022-09-27T21:12:06.202Z,98550.48
2022-09-27T21:14:34.398Z,98547.91
2022-09-27T21:17:02.365Z,98546.10
2022-09-27T21:19:30.796Z,98541.55
2022-09-27T21:21:58.505Z,98536.79
2022-09-27T21:24:26.388Z,98533.52
2022-09-27T21:26:54.285Z,98529.52
2022-09-27T21:29:22.433Z,98529.75
2022-09-27T21:31:50.358Z,98525.26
2022-09-27T21:34:18.462Z,98522.88
2022-09-27T21:36:46.496Z,98520.72
2022-09-27T21:39:15.479Z,98519.58
2022-09-27T21:41:43.355Z,98515.73
2022-09-27T21:44:11.649Z,98513.85
2022-09-27T21:46:41.004Z,98511.16
2022-09-27T21:49:09.119Z,98508.16
2022-09-27T21:51:39.138Z,98502.89
2022-09-27T21:54:12.442Z,98500.34
2022-09-27T21:56:41.324Z,98501.96
2022-09-27T21:59:14.127Z,98501.52
2022-09-27T22:01:44.098Z,98499.48
2022-09-27T22:04:12.999Z,98498.89
2022-09-27T22:06:40.896Z,98497.98
2022-09-27T22:09:12.621Z,98496.33
2022-09-27T22:11:44.005Z,98497.42
2022-09-27T22:14:13.485Z,98496.06
2022-09-27T22:16:41.735Z,98499.09
2022-09-27T22:19:11.599Z,98497.31
2022-09-27T22:21:40.636Z,98493.24
2022-09-27T22:24:15.246Z,98494.25
2022-09-27T22:26:47.140Z,98491.14
2022-09-27T22:29:15.004Z,98487.80
2022-09-27T22:31:42.798Z,98488.50
2022-09-27T22:34:20.860Z,98487.16
2022-09-27T22:36:48.718Z,98484.58
2022-09-27T22:39:16.573Z,98481.89
2022-09-27T22:41:44.763Z,98483.88
2022-09-27T22:44:12.656Z,98480.95
2022-09-27T22:46:40.454Z,98478.15
2022-09-27T22:49:08.919Z,98474.67
2022-09-27T22:51:36.899Z,98472.23
2022-09-27T22:54:05.136Z,98468.55
2022-09-27T22:56:33.592Z,98464.64
2022-09-27T22:59:01.292Z,98466.94
2022-09-27T23:01:29.163Z,98465.06
2022-09-27T23:03:58.338Z,98467.09
2022-09-27T23:06:26.252Z,98464.41
2022-09-27T23:08:55.125Z,98470.34
2022-09-27T23:11:23.283Z,98475.80
2022-09-27T23:13:51.332Z,98477.92
2022-09-27T23:16:23.435Z,98483.21
2022-09-27T23:18:55.493Z,98484.56
2022-09-27T23:21:26.218Z,98485.14
2022-09-27T23:23:56.393Z,98481.38
2022-09-27T23:26:26.174Z,98477.08
2022-09-27T23:29:01.462Z,98477.16
2022-09-27T23:31:31.552Z,98473.02
2022-09-27T23:34:02.866Z,98475.54
2022-09-27T23:36:30.666Z,98474.02
2022-09-27T23:39:00.660Z,98474.86
2022-09-27T23:41:28.990Z,98474.83
2022-09-27T23:43:57.551Z,98475.13
2022-09-27T23:46:25.959Z,98482.52
2022-09-27T23:48:53.983Z,98483.39
2022-09-27T23:51:21.931Z,98482.30
2022-09-27T23:53:50.473Z,98481.86
2022-09-27T23:56:18.942Z,98482.91
2022-09-27T23:58:47.063Z,98480.48
